Portada
METAR-TAF:

METAR-TAF

Aeroports :

Kosrae, Micronèsia

latitud: 05-21N, longitud: 162-57E, altitud: 3 m

METAR: manca

Hora: 01:57 (14:57 UTC)

Pronòstic

L'informe es va fer fa 15 hores i 37 minuts, a les 23:20 UTC
Pronòstic vàlid del 14 a les 00 UTC al 14 a les 24 UTC
Vent 7 kt del Oest/Nord-Oest
Visibilitat: 10 km
Núvols disperses a una alçada de 2100 ft

TAF: PTSA 132320Z 1400/1424 29007KT P6SM SCT021

Observacions i pronòstics meteorològics de més de 4000 aeroports (METAR i TAF).

Les estacions disponibles són els punts grocs i vermells al mapa.

Posi el ratolí al punt desitjat per veure el nom de l'estació.

Feu clic per veure les observacions i els pronòstics meteorològics.

Per canviar el mapa: feu clic els botons verds amb una creu de color negre per apropar; al botó verd amb un guió per allunyar la imatge; o en les fletxes verdes per a mapes adjacents.


METAR-TAF: